sensor_id;sensor_type;location;lat;lon;timestamp;pressure;altitude;pressure_sealevel;temperature;humidity
16544;BME280;8384;47.996;7.786;2024-03-08T00:00:53;98506.09;;;-0.02;100.00
16544;BME280;8384;47.996;7.786;2024-03-08T00:03:19;98504.66;;;-0.04;100.00
16544;BME280;8384;47.996;7.786;2024-03-08T00:05:44;98491.75;;;-0.16;100.00
16544;BME280;8384;47.996;7.786;2024-03-08T00:08:09;98488.03;;;-0.21;100.00
16544;BME280;8384;47.996;7.786;2024-03-08T00:10:35;98491.09;;;-0.24;100.00
16544;BME280;8384;47.996;7.786;2024-03-08T00:13:00;98447.09;;;-0.58;100.00
16544;BME280;8384;47.996;7.786;2024-03-08T00:15:26;98481.34;;;-0.32;100.00
16544;BME280;8384;47.996;7.786;2024-03-08T00:17:52;98492.28;;;-0.34;100.00
16544;BME280;8384;47.996;7.786;2024-03-08T00:20:18;98480.72;;;-0.34;100.00
16544;BME280;8384;47.996;7.786;2024-03-08T00:22:44;98472.16;;;-0.44;100.00
16544;BME280;8384;47.996;7.786;2024-03-08T00:25:09;98483.41;;;-0.34;100.00
16544;BME280;8384;47.996;7.786;2024-03-08T00:27:35;98477.56;;;-0.38;100.00
16544;BME280;8384;47.996;7.786;2024-03-08T00:30:00;98475.72;;;-0.37;100.00
16544;BME280;8384;47.996;7.786;2024-03-08T00:32:26;98390.94;;;-0.88;100.00
16544;BME280;8384;47.996;7.786;2024-03-08T00:34:53;98476.75;;;-0.38;100.00
16544;BME280;8384;47.996;7.786;2024-03-08T00:37:19;98473.19;;;-0.46;100.00
16544;BME280;8384;47.996;7.786;2024-03-08T00:39:45;98452.22;;;-0.64;100.00
16544;BME280;8384;47.996;7.786;2024-03-08T00:42:10;98457.53;;;-0.70;100.00
16544;BME280;8384;47.996;7.786;2024-03-08T00:44:35;98470.47;;;-0.52;100.00
16544;BME280;8384;47.996;7.786;2024-03-08T00:47:01;98459.94;;;-0.54;100.00
16544;BME280;8384;47.996;7.786;2024-03-08T00:49:27;98448.47;;;-0.69;100.00
16544;BME280;8384;47.996;7.786;2024-03-08T00:51:52;98465.44;;;-0.62;100.00
16544;BME280;8384;47.996;7.786;2024-03-08T00:54:17;98455.91;;;-0.65;100.00
16544;BME280;8384;47.996;7.786;2024-03-08T00:56:42;98453.69;;;-0.61;100.00
16544;BME280;8384;47.996;7.786;2024-03-08T00:59:08;98458.59;;;-0.65;100.00
16544;BME280;8384;47.996;7.786;2024-03-08T01:01:33;98454.84;;;-0.70;100.00
16544;BME280;8384;47.996;7.786;2024-03-08T01:03:58;98453.81;;;-0.69;100.00
16544;BME280;8384;47.996;7.786;2024-03-08T01:06:24;98452.00;;;-0.69;100.00
16544;BME280;8384;47.996;7.786;2024-03-08T01:08:49;98445.34;;;-0.73;100.00
16544;BME280;8384;47.996;7.786;2024-03-08T01:11:17;98410.31;;;-0.93;100.00
16544;BME280;8384;47.996;7.786;2024-03-08T01:13:43;98443.31;;;-0.71;100.00
16544;BME280;8384;47.996;7.786;2024-03-08T01:16:08;98434.41;;;-0.71;100.00
16544;BME280;8384;47.996;7.786;2024-03-08T01:18:33;98401.38;;;-1.00;100.00
16544;BME280;8384;47.996;7.786;2024-03-08T01:20:59;98442.16;;;-0.83;100.00
16544;BME280;8384;47.996;7.786;2024-03-08T01:23:24;98383.28;;;-1.20;100.00
16544;BME280;8384;47.996;7.786;2024-03-08T01:25:49;98428.88;;;-0.92;100.00
16544;BME280;8384;47.996;7.786;2024-03-08T01:28:22;98441.47;;;-0.92;100.00
16544;BME280;8384;47.996;7.786;2024-03-08T01:30:47;98427.63;;;-0.96;100.00
16544;BME280;8384;47.996;7.786;2024-03-08T01:33:14;98420.22;;;-0.94;100.00
16544;BME280;8384;47.996;7.786;2024-03-08T01:35:39;98395.53;;;-1.11;100.00
16544;BME280;8384;47.996;7.786;2024-03-08T01:38:06;98422.44;;;-0.97;100.00
16544;BME280;8384;47.996;7.786;2024-03-08T01:40:31;98391.13;;;-1.18;100.00
16544;BME280;8384;47.996;7.786;2024-03-08T01:42:57;98406.50;;;-1.06;100.00
16544;BME280;8384;47.996;7.786;2024-03-08T01:45:22;98413.84;;;-1.14;100.00
16544;BME280;8384;47.996;7.786;2024-03-08T01:47:47;98412.00;;;-1.14;100.00
16544;BME280;8384;47.996;7.786;2024-03-08T01:50:13;98383.88;;;-1.25;100.00
16544;BME280;8384;47.996;7.786;2024-03-08T01:52:39;98401.94;;;-1.12;100.00
16544;BME280;8384;47.996;7.786;2024-03-08T01:55:05;98394.84;;;-1.19;100.00
16544;BME280;8384;47.996;7.786;2024-03-08T01:57:32;98395.03;;;-1.21;100.00
16544;BME280;8384;47.996;7.786;2024-03-08T02:00:02;98393.59;;;-1.24;100.00
16544;BME280;8384;47.996;7.786;2024-03-08T02:02:33;98352.50;;;-1.53;100.00
16544;BME280;8384;47.996;7.786;2024-03-08T02:05:00;98387.72;;;-1.34;100.00
16544;BME280;8384;47.996;7.786;2024-03-08T02:07:26;98386.88;;;-1.34;100.00
16544;BME280;8384;47.996;7.786;2024-03-08T02:09:51;98376.47;;;-1.44;100.00
16544;BME280;8384;47.996;7.786;2024-03-08T02:12:16;98379.34;;;-1.46;100.00
16544;BME280;8384;47.996;7.786;2024-03-08T02:14:42;98355.41;;;-1.69;100.00
16544;BME280;8384;47.996;7.786;2024-03-08T02:17:08;98377.00;;;-1.56;100.00
16544;BME280;8384;47.996;7.786;2024-03-08T02:19:33;98375.09;;;-1.62;100.00
16544;BME280;8384;47.996;7.786;2024-03-08T02:22:01;98373.41;;;-1.63;100.00
16544;BME280;8384;47.996;7.786;2024-03-08T02:24:29;98369.84;;;-1.70;100.00
16544;BME280;8384;47.996;7.786;2024-03-08T02:26:55;98371.06;;;-1.73;100.00
16544;BME280;8384;47.996;7.786;2024-03-08T02:29:22;98370.16;;;-1.58;100.00
16544;BME280;8384;47.996;7.786;2024-03-08T02:31:51;98364.78;;;-1.58;100.00
16544;BME280;8384;47.996;7.786;2024-03-08T02:34:16;98352.44;;;-1.59;100.00
16544;BME280;8384;47.996;7.786;2024-03-08T02:36:41;98350.31;;;-1.64;100.00
16544;BME280;8384;47.996;7.786;2024-03-08T02:39:06;98331.84;;;-1.81;100.00
16544;BME280;8384;47.996;7.786;2024-03-08T02:41:32;98326.22;;;-1.86;100.00
16544;BME280;8384;47.996;7.786;2024-03-08T02:43:57;98348.03;;;-1.89;100.00
16544;BME280;8384;47.996;7.786;2024-03-08T02:46:23;98339.72;;;-1.94;100.00
16544;BME280;8384;47.996;7.786;2024-03-08T02:48:48;98331.63;;;-2.01;100.00
16544;BME280;8384;47.996;7.786;2024-03-08T02:51:13;98331.84;;;-2.02;100.00
16544;BME280;8384;47.996;7.786;2024-03-08T02:53:41;98332.00;;;-2.04;100.00
16544;BME280;8384;47.996;7.786;2024-03-08T02:56:06;98325.06;;;-1.98;100.00
16544;BME280;8384;47.996;7.786;2024-03-08T02:58:36;98329.59;;;-1.99;100.00
16544;BME280;8384;47.996;7.786;2024-03-08T03:01:01;98323.00;;;-1.96;100.00
16544;BME280;8384;47.996;7.786;2024-03-08T03:03:26;98320.75;;;-1.99;100.00
16544;BME280;8384;47.996;7.786;2024-03-08T03:05:52;98319.09;;;-2.00;100.00
16544;BME280;8384;47.996;7.786;2024-03-08T03:08:20;98323.22;;;-1.98;100.00
16544;BME280;8384;47.996;7.786;2024-03-08T03:10:46;98297.44;;;-2.20;100.00
16544;BME280;8384;47.996;7.786;2024-03-08T03:13:11;98323.97;;;-2.04;100.00
16544;BME280;8384;47.996;7.786;2024-03-08T03:15:37;98326.22;;;-2.07;100.00
16544;BME280;8384;47.996;7.786;2024-03-08T03:18:02;98319.91;;;-2.00;100.00
16544;BME280;8384;47.996;7.786;2024-03-08T03:20:28;98325.56;;;-1.88;100.00
16544;BME280;8384;47.996;7.786;2024-03-08T03:22:57;98313.19;;;-2.11;100.00
16544;BME280;8384;47.996;7.786;2024-03-08T03:25:23;98322.50;;;-2.06;100.00
16544;BME280;8384;47.996;7.786;2024-03-08T03:27:51;98321.81;;;-2.15;100.00
16544;BME280;8384;47.996;7.786;2024-03-08T03:30:16;98325.03;;;-2.20;100.00
16544;BME280;8384;47.996;7.786;2024-03-08T03:32:48;98321.53;;;-2.20;100.00
16544;BME280;8384;47.996;7.786;2024-03-08T03:35:14;98322.94;;;-2.24;100.00
16544;BME280;8384;47.996;7.786;2024-03-08T03:37:40;98320.69;;;-2.21;100.00
16544;BME280;8384;47.996;7.786;2024-03-08T03:40:08;98187.28;;;-2.97;100.00
16544;BME280;8384;47.996;7.786;2024-03-08T03:42:33;98318.66;;;-2.19;100.00
16544;BME280;8384;47.996;7.786;2024-03-08T03:44:59;98316.13;;;-2.27;100.00
16544;BME280;8384;47.996;7.786;2024-03-08T03:47:24;98305.78;;;-2.30;100.00
16544;BME280;8384;47.996;7.786;2024-03-08T03:49:49;98304.31;;;-2.33;100.00
16544;BME280;8384;47.996;7.786;2024-03-08T03:52:15;98297.66;;;-2.37;100.00
16544;BME280;8384;47.996;7.786;2024-03-08T03:54:40;98282.56;;;-2.45;100.00
16544;BME280;8384;47.996;7.786;2024-03-08T03:57:05;98291.56;;;-2.31;100.00
16544;BME280;8384;47.996;7.786;2024-03-08T03:59:32;98293.78;;;-2.34;100.00
16544;BME280;8384;47.996;7.786;2024-03-08T04:01:58;98288.25;;;-2.33;100.00
16544;BME280;8384;47.996;7.786;2024-03-08T04:04:23;98290.03;;;-2.40;100.00
16544;BME280;8384;47.996;7.786;2024-03-08T04:06:49;98292.88;;;-2.42;100.00
16544;BME280;8384;47.996;7.786;2024-03-08T04:09:16;98293.97;;;-2.36;100.00
16544;BME280;8384;47.996;7.786;2024-03-08T04:11:44;98277.75;;;-2.34;100.00
16544;BME280;8384;47.996;7.786;2024-03-08T04:14:09;98282.06;;;-2.33;100.00
16544;BME280;8384;47.996;7.786;2024-03-08T04:16:35;98267.78;;;-2.41;100.00
16544;BME280;8384;47.996;7.786;2024-03-08T04:19:01;98285.72;;;-2.19;100.00
16544;BME280;8384;47.996;7.786;2024-03-08T04:21:30;98291.06;;;-2.19;100.00
16544;BME280;8384;47.996;7.786;2024-03-08T04:23:55;98285.06;;;-2.21;100.00
16544;BME280;8384;47.996;7.786;2024-03-08T04:26:20;98293.00;;;-2.13;100.00
16544;BME280;8384;47.996;7.786;2024-03-08T04:28:45;98267.28;;;-2.29;100.00
16544;BME280;8384;47.996;7.786;2024-03-08T04:31:11;98286.34;;;-2.17;100.00
16544;BME280;8384;47.996;7.786;2024-03-08T04:33:36;98253.00;;;-2.36;100.00
16544;BME280;8384;47.996;7.786;2024-03-08T04:36:02;98275.22;;;-1.99;100.00
16544;BME280;8384;47.996;7.786;2024-03-08T04:38:30;98283.47;;;-1.94;100.00
16544;BME280;8384;47.996;7.786;2024-03-08T04:40:57;98282.41;;;-2.00;100.00
16544;BME280;8384;47.996;7.786;2024-03-08T04:43:23;98275.00;;;-1.98;100.00
16544;BME280;8384;47.996;7.786;2024-03-08T04:45:51;98275.91;;;-1.90;100.00
16544;BME280;8384;47.996;7.786;2024-03-08T04:48:16;98274.03;;;-1.90;100.00
16544;BME280;8384;47.996;7.786;2024-03-08T04:50:42;98274.41;;;-1.93;100.00
16544;BME280;8384;47.996;7.786;2024-03-08T04:53:07;98249.13;;;-2.12;100.00
16544;BME280;8384;47.996;7.786;2024-03-08T04:55:34;98254.16;;;-2.02;100.00
16544;BME280;8384;47.996;7.786;2024-03-08T04:57:59;98230.44;;;-2.05;100.00
16544;BME280;8384;47.996;7.786;2024-03-08T05:00:24;98255.34;;;-1.83;100.00
16544;BME280;8384;47.996;7.786;2024-03-08T05:02:50;98268.66;;;-1.68;100.00
16544;BME280;8384;47.996;7.786;2024-03-08T05:05:18;98264.38;;;-1.62;100.00
16544;BME280;8384;47.996;7.786;2024-03-08T05:07:43;98251.72;;;-1.75;100.00
16544;BME280;8384;47.996;7.786;2024-03-08T05:10:10;98264.97;;;-1.89;100.00
16544;BME280;8384;47.996;7.786;2024-03-08T05:12:36;98260.91;;;-1.85;100.00
16544;BME280;8384;47.996;7.786;2024-03-08T05:15:03;98262.13;;;-1.87;100.00
16544;BME280;8384;47.996;7.786;2024-03-08T05:17:30;98262.84;;;-2.00;100.00
16544;BME280;8384;47.996;7.786;2024-03-08T05:19:55;98264.41;;;-2.06;100.00
16544;BME280;8384;47.996;7.786;2024-03-08T05:22:20;98254.03;;;-2.16;100.00
16544;BME280;8384;47.996;7.786;2024-03-08T05:24:46;98260.13;;;-2.22;100.00
16544;BME280;8384;47.996;7.786;2024-03-08T05:27:11;98258.72;;;-1.96;100.00
16544;BME280;8384;47.996;7.786;2024-03-08T05:29:38;98261.56;;;-2.04;100.00
16544;BME280;8384;47.996;7.786;2024-03-08T05:32:03;98271.53;;;-2.35;100.00
16544;BME280;8384;47.996;7.786;2024-03-08T05:34:29;98230.31;;;-2.77;100.00
16544;BME280;8384;47.996;7.786;2024-03-08T05:36:54;98256.72;;;-2.74;100.00
16544;BME280;8384;47.996;7.786;2024-03-08T05:39:19;98241.41;;;-2.80;100.00
16544;BME280;8384;47.996;7.786;2024-03-08T05:41:45;98273.09;;;-2.62;100.00
16544;BME280;8384;47.996;7.786;2024-03-08T05:44:13;98271.88;;;-2.60;100.00
16544;BME280;8384;47.996;7.786;2024-03-08T05:46:39;98266.81;;;-2.54;100.00
16544;BME280;8384;47.996;7.786;2024-03-08T05:49:05;98275.56;;;-2.61;100.00
16544;BME280;8384;47.996;7.786;2024-03-08T05:51:32;98271.00;;;-2.67;100.00
16544;BME280;8384;47.996;7.786;2024-03-08T05:53:59;98274.38;;;-2.58;100.00
16544;BME280;8384;47.996;7.786;2024-03-08T05:56:24;98272.25;;;-2.63;100.00
16544;BME280;8384;47.996;7.786;2024-03-08T05:58:50;98265.38;;;-2.72;100.00
16544;BME280;8384;47.996;7.786;2024-03-08T06:01:15;98272.56;;;-2.73;100.00
16544;BME280;8384;47.996;7.786;2024-03-08T06:03:41;98252.03;;;-2.87;100.00
16544;BME280;8384;47.996;7.786;2024-03-08T06:06:12;98231.75;;;-2.96;100.00
16544;BME280;8384;47.996;7.786;2024-03-08T06:08:37;98214.63;;;-3.17;100.00
16544;BME280;8384;47.996;7.786;2024-03-08T06:11:02;98238.38;;;-2.92;100.00
16544;BME280;8384;47.996;7.786;2024-03-08T06:13:28;98265.53;;;-2.74;100.00
16544;BME280;8384;47.996;7.786;2024-03-08T06:15:56;98262.22;;;-2.76;100.00
16544;BME280;8384;47.996;7.786;2024-03-08T06:18:21;98262.19;;;-2.61;100.00
16544;BME280;8384;47.996;7.786;2024-03-08T06:20:46;98244.63;;;-2.70;100.00
16544;BME280;8384;47.996;7.786;2024-03-08T06:23:12;98264.13;;;-2.54;100.00
16544;BME280;8384;47.996;7.786;2024-03-08T06:25:37;98263.19;;;-2.47;100.00
16544;BME280;8384;47.996;7.786;2024-03-08T06:28:02;98212.94;;;-2.66;100.00
16544;BME280;8384;47.996;7.786;2024-03-08T06:30:28;98253.66;;;-2.34;100.00
16544;BME280;8384;47.996;7.786;2024-03-08T06:32:53;98253.28;;;-2.31;100.00
16544;BME280;8384;47.996;7.786;2024-03-08T06:35:18;98257.84;;;-2.25;100.00
16544;BME280;8384;47.996;7.786;2024-03-08T06:37:45;98251.56;;;-2.17;100.00
16544;BME280;8384;47.996;7.786;2024-03-08T06:40:11;98230.03;;;-2.24;100.00
16544;BME280;8384;47.996;7.786;2024-03-08T06:42:39;98246.69;;;-2.07;100.00
16544;BME280;8384;47.996;7.786;2024-03-08T06:45:05;98246.63;;;-1.92;100.00
16544;BME280;8384;47.996;7.786;2024-03-08T06:47:31;98239.81;;;-1.66;100.00
16544;BME280;8384;47.996;7.786;2024-03-08T06:49:59;98245.47;;;-1.54;100.00
16544;BME280;8384;47.996;7.786;2024-03-08T06:52:24;98246.00;;;-1.37;100.00
16544;BME280;8384;47.996;7.786;2024-03-08T06:54:50;98250.91;;;-1.06;100.00
16544;BME280;8384;47.996;7.786;2024-03-08T06:57:17;98227.25;;;-0.88;100.00
16544;BME280;8384;47.996;7.786;2024-03-08T06:59:42;98231.47;;;-0.66;100.00
16544;BME280;8384;47.996;7.786;2024-03-08T07:02:08;98234.22;;;-0.39;100.00
16544;BME280;8384;47.996;7.786;2024-03-08T07:04:34;98240.47;;;-0.25;100.00
16544;BME280;8384;47.996;7.786;2024-03-08T07:07:03;98213.41;;;-0.30;100.00
16544;BME280;8384;47.996;7.786;2024-03-08T07:09:28;98232.03;;;-0.02;100.00
16544;BME280;8384;47.996;7.786;2024-03-08T07:11:54;98232.88;;;0.06;100.00
16544;BME280;8384;47.996;7.786;2024-03-08T07:14:22;98227.50;;;0.33;100.00
16544;BME280;8384;47.996;7.786;2024-03-08T07:16:48;98206.19;;;0.44;100.00
16544;BME280;8384;47.996;7.786;2024-03-08T07:19:13;98205.16;;;0.46;100.00
16544;BME280;8384;47.996;7.786;2024-03-08T07:21:39;98213.22;;;0.39;100.00
16544;BME280;8384;47.996;7.786;2024-03-08T07:24:04;98185.72;;;0.23;100.00
16544;BME280;8384;47.996;7.786;2024-03-08T07:26:47;98195.66;;;0.29;100.00
16544;BME280;8384;47.996;7.786;2024-03-08T07:29:15;98202.69;;;0.24;100.00
16544;BME280;8384;47.996;7.786;2024-03-08T07:31:40;98187.56;;;0.43;100.00
16544;BME280;8384;47.996;7.786;2024-03-08T07:34:36;98212.38;;;0.58;100.00
16544;BME280;8384;47.996;7.786;2024-03-08T07:37:01;98208.19;;;0.69;100.00
16544;BME280;8384;47.996;7.786;2024-03-08T07:39:27;98207.38;;;0.76;100.00
16544;BME280;8384;47.996;7.786;2024-03-08T07:41:52;98214.75;;;0.94;100.00
16544;BME280;8384;47.996;7.786;2024-03-08T07:44:18;98186.63;;;0.89;100.00
16544;BME280;8384;47.996;7.786;2024-03-08T07:46:44;98166.94;;;0.89;100.00
16544;BME280;8384;47.996;7.786;2024-03-08T07:49:09;98142.16;;;0.80;100.00
16544;BME280;8384;47.996;7.786;2024-03-08T07:51:36;98209.44;;;1.26;100.00
16544;BME280;8384;47.996;7.786;2024-03-08T07:54:01;98219.69;;;1.49;100.00
16544;BME280;8384;47.996;7.786;2024-03-08T07:56:29;98210.28;;;1.65;100.00
16544;BME280;8384;47.996;7.786;2024-03-08T07:58:54;98215.75;;;1.84;100.00
16544;BME280;8384;47.996;7.786;2024-03-08T08:01:20;98204.44;;;2.00;100.00
16544;BME280;8384;47.996;7.786;2024-03-08T08:03:45;98206.44;;;2.12;100.00
16544;BME280;8384;47.996;7.786;2024-03-08T08:06:11;98192.16;;;2.11;100.00
16544;BME280;8384;47.996;7.786;2024-03-08T08:08:43;98195.56;;;2.25;100.00
16544;BME280;8384;47.996;7.786;2024-03-08T08:11:09;98183.75;;;2.45;100.00
16544;BME280;8384;47.996;7.786;2024-03-08T08:13:36;98175.91;;;2.18;100.00
16544;BME280;8384;47.996;7.786;2024-03-08T08:16:02;98176.47;;;2.45;100.00
16544;BME280;8384;47.996;7.786;2024-03-08T08:18:28;98204.09;;;3.03;100.00
16544;BME280;8384;47.996;7.786;2024-03-08T08:20:54;98183.56;;;2.83;100.00
16544;BME280;8384;47.996;7.786;2024-03-08T08:23:19;98192.16;;;3.29;100.00
16544;BME280;8384;47.996;7.786;2024-03-08T08:25:46;98164.66;;;3.63;100.00
16544;BME280;8384;47.996;7.786;2024-03-08T08:28:11;98188.72;;;3.83;100.00
16544;BME280;8384;47.996;7.786;2024-03-08T08:30:37;98167.13;;;3.65;100.00
16544;BME280;8384;47.996;7.786;2024-03-08T08:33:03;98166.59;;;3.44;100.00
16544;BME280;8384;47.996;7.786;2024-03-08T08:35:30;98191.94;;;3.73;100.00
16544;BME280;8384;47.996;7.786;2024-03-08T08:37:55;98187.72;;;4.32;100.00
16544;BME280;8384;47.996;7.786;2024-03-08T08:40:21;98184.91;;;4.50;100.00
16544;BME280;8384;47.996;7.786;2024-03-08T08:42:47;98185.59;;;4.70;98.64
16544;BME280;8384;47.996;7.786;2024-03-08T08:45:13;98184.09;;;4.62;99.22
16544;BME280;8384;47.996;7.786;2024-03-08T08:47:38;98185.09;;;4.25;99.94
16544;BME280;8384;47.996;7.786;2024-03-08T08:50:08;98144.28;;;4.03;100.00
16544;BME280;8384;47.996;7.786;2024-03-08T08:52:36;98192.28;;;5.03;99.15
16544;BME280;8384;47.996;7.786;2024-03-08T08:55:03;98159.69;;;4.86;94.78
16544;BME280;8384;47.996;7.786;2024-03-08T08:57:29;98187.69;;;5.32;92.29
16544;BME280;8384;47.996;7.786;2024-03-08T08:59:56;98182.88;;;5.34;93.70
16544;BME280;8384;47.996;7.786;2024-03-08T09:02:22;98153.28;;;5.62;92.74
16544;BME280;8384;47.996;7.786;2024-03-08T09:04:47;98162.75;;;6.05;86.09
16544;BME280;8384;47.996;7.786;2024-03-08T09:07:13;98175.56;;;6.10;83.47
16544;BME280;8384;47.996;7.786;2024-03-08T09:09:39;98174.78;;;5.80;85.19
16544;BME280;8384;47.996;7.786;2024-03-08T09:12:04;98180.81;;;5.53;87.10
16544;BME280;8384;47.996;7.786;2024-03-08T09:14:29;98165.72;;;5.46;88.36
16544;BME280;8384;47.996;7.786;2024-03-08T09:16:55;98165.38;;;5.71;86.40
16544;BME280;8384;47.996;7.786;2024-03-08T09:19:20;98150.50;;;5.74;85.84
16544;BME280;8384;47.996;7.786;2024-03-08T09:21:45;98116.16;;;5.62;84.33
16544;BME280;8384;47.996;7.786;2024-03-08T09:24:11;98162.03;;;5.98;81.92
16544;BME280;8384;47.996;7.786;2024-03-08T09:26:37;98164.97;;;6.08;80.57
16544;BME280;8384;47.996;7.786;2024-03-08T09:29:02;98157.72;;;6.31;80.61
16544;BME280;8384;47.996;7.786;2024-03-08T09:31:28;98119.47;;;6.33;80.82
16544;BME280;8384;47.996;7.786;2024-03-08T09:33:53;98148.91;;;6.80;78.35
16544;BME280;8384;47.996;7.786;2024-03-08T09:36:18;98115.09;;;6.32;80.81
16544;BME280;8384;47.996;7.786;2024-03-08T09:38:44;98119.91;;;6.64;77.32
16544;BME280;8384;47.996;7.786;2024-03-08T09:41:09;98096.59;;;6.68;77.11
16544;BME280;8384;47.996;7.786;2024-03-08T09:43:35;98114.59;;;6.96;76.89
16544;BME280;8384;47.996;7.786;2024-03-08T09:46:02;98130.25;;;6.89;75.84
16544;BME280;8384;47.996;7.786;2024-03-08T09:48:28;98119.97;;;6.91;76.48
16544;BME280;8384;47.996;7.786;2024-03-08T09:50:54;98124.91;;;6.72;75.46
16544;BME280;8384;47.996;7.786;2024-03-08T09:53:20;98123.63;;;6.80;77.98
16544;BME280;8384;47.996;7.786;2024-03-08T09:55:47;98123.97;;;7.33;76.10
16544;BME280;8384;47.996;7.786;2024-03-08T09:58:15;98118.19;;;7.24;74.56
16544;BME280;8384;47.996;7.786;2024-03-08T10:00:53;98091.91;;;7.08;75.10
16544;BME280;8384;47.996;7.786;2024-03-08T10:03:21;98107.34;;;7.84;73.99
16544;BME280;8384;47.996;7.786;2024-03-08T10:05:47;98120.34;;;8.47;71.91
16544;BME280;8384;47.996;7.786;2024-03-08T10:08:12;98106.41;;;8.44;69.14
16544;BME280;8384;47.996;7.786;2024-03-08T10:10:38;98111.75;;;7.90;68.82
16544;BME280;8384;47.996;7.786;2024-03-08T10:13:07;98101.84;;;8.54;65.60
16544;BME280;8384;47.996;7.786;2024-03-08T10:15:33;98110.44;;;8.36;65.60
16544;BME280;8384;47.996;7.786;2024-03-08T10:17:58;98101.16;;;8.32;67.54
16544;BME280;8384;47.996;7.786;2024-03-08T10:20:24;98068.44;;;8.26;65.93
16544;BME280;8384;47.996;7.786;2024-03-08T10:22:49;98057.78;;;8.20;65.85
16544;BME280;8384;47.996;7.786;2024-03-08T10:25:16;98092.75;;;8.33;65.22
16544;BME280;8384;47.996;7.786;2024-03-08T10:27:42;98074.22;;;7.98;64.56
16544;BME280;8384;47.996;7.786;2024-03-08T10:30:14;98092.84;;;8.11;66.21
16544;BME280;8384;47.996;7.786;2024-03-08T10:32:41;98083.97;;;8.26;64.90
16544;BME280;8384;47.996;7.786;2024-03-08T10:35:07;98083.66;;;8.60;65.79
16544;BME280;8384;47.996;7.786;2024-03-08T10:37:38;98078.47;;;8.59;63.46
16544;BME280;8384;47.996;7.786;2024-03-08T10:40:09;98079.88;;;8.29;64.19
16544;BME280;8384;47.996;7.786;2024-03-08T10:42:51;98058.69;;;8.84;62.40
16544;BME280;8384;47.996;7.786;2024-03-08T10:50:44;98012.34;;;8.89;60.65
16544;BME280;8384;47.996;7.786;2024-03-08T10:53:14;98067.25;;;9.19;59.32
16544;BME280;8384;47.996;7.786;2024-03-08T10:55:40;98064.81;;;9.27;60.28
16544;BME280;8384;47.996;7.786;2024-03-08T10:58:06;98053.94;;;9.69;59.42
16544;BME280;8384;47.996;7.786;2024-03-08T11:00:33;98063.44;;;10.39;57.70
16544;BME280;8384;47.996;7.786;2024-03-08T11:02:58;98058.66;;;10.80;56.88
16544;BME280;8384;47.996;7.786;2024-03-08T11:05:40;98052.31;;;10.90;53.28
16544;BME280;8384;47.996;7.786;2024-03-08T11:10:47;98028.00;;;9.61;55.73
16544;BME280;8384;47.996;7.786;2024-03-08T11:13:39;98047.06;;;9.20;58.94
16544;BME280;8384;47.996;7.786;2024-03-08T11:16:12;98040.56;;;9.67;57.86
16544;BME280;8384;47.996;7.786;2024-03-08T11:18:38;98043.28;;;9.26;58.64
16544;BME280;8384;47.996;7.786;2024-03-08T11:21:04;98005.34;;;9.09;58.92
16544;BME280;8384;47.996;7.786;2024-03-08T11:23:33;98028.84;;;9.62;58.67
16544;BME280;8384;47.996;7.786;2024-03-08T11:25:59;98031.28;;;9.68;57.37
16544;BME280;8384;47.996;7.786;2024-03-08T11:28:25;98030.19;;;9.74;57.33
16544;BME280;8384;47.996;7.786;2024-03-08T11:33:26;97992.16;;;10.25;55.38
16544;BME280;8384;47.996;7.786;2024-03-08T11:35:52;98022.19;;;10.45;54.12
16544;BME280;8384;47.996;7.786;2024-03-08T11:38:22;98014.41;;;10.73;54.14
16544;BME280;8384;47.996;7.786;2024-03-08T11:40:48;98012.91;;;11.02;53.10
16544;BME280;8384;47.996;7.786;2024-03-08T11:43:16;98008.59;;;10.90;52.08
16544;BME280;8384;47.996;7.786;2024-03-08T11:45:41;98003.06;;;10.45;53.13
16544;BME280;8384;47.996;7.786;2024-03-08T11:48:07;98005.41;;;10.73;54.22
16544;BME280;8384;47.996;7.786;2024-03-08T11:50:32;97956.38;;;10.92;53.68
16544;BME280;8384;47.996;7.786;2024-03-08T11:53:04;97986.91;;;11.44;52.45
16544;BME280;8384;47.996;7.786;2024-03-08T11:55:31;97982.41;;;11.59;52.31
16544;BME280;8384;47.996;7.786;2024-03-08T11:58:02;97982.03;;;11.70;52.28
16544;BME280;8384;47.996;7.786;2024-03-08T12:00:27;97971.25;;;11.84;50.61
16544;BME280;8384;47.996;7.786;2024-03-08T12:03:04;97968.13;;;12.21;50.68
16544;BME280;8384;47.996;7.786;2024-03-08T12:05:29;97949.84;;;12.59;49.20
16544;BME280;8384;47.996;7.786;2024-03-08T12:07:59;97947.66;;;13.00;50.13
16544;BME280;8384;47.996;7.786;2024-03-08T12:10:25;97929.78;;;12.45;50.21
16544;BME280;8384;47.996;7.786;2024-03-08T12:12:52;97941.13;;;11.84;50.92
16544;BME280;8384;47.996;7.786;2024-03-08T12:15:19;97934.78;;;12.38;51.93
16544;BME280;8384;47.996;7.786;2024-03-08T12:17:47;97944.41;;;13.17;50.72
16544;BME280;8384;47.996;7.786;2024-03-08T12:20:17;97942.84;;;13.49;47.53
16544;BME280;8384;47.996;7.786;2024-03-08T12:22:43;97911.03;;;12.52;49.19
16544;BME280;8384;47.996;7.786;2024-03-08T12:25:11;97927.09;;;12.40;50.23
16544;BME280;8384;47.996;7.786;2024-03-08T12:27:40;97902.13;;;12.60;51.89
16544;BME280;8384;47.996;7.786;2024-03-08T12:30:25;97915.84;;;12.60;50.41
16544;BME280;8384;47.996;7.786;2024-03-08T12:32:57;97922.97;;;13.19;50.17
16544;BME280;8384;47.996;7.786;2024-03-08T12:35:27;97905.34;;;12.87;49.84
16544;BME280;8384;47.996;7.786;2024-03-08T12:37:57;97901.91;;;12.38;52.15
16544;BME280;8384;47.996;7.786;2024-03-08T12:40:29;97897.78;;;12.40;52.55
16544;BME280;8384;47.996;7.786;2024-03-08T12:42:57;97895.41;;;12.09;53.15
16544;BME280;8384;47.996;7.786;2024-03-08T12:45:23;97890.41;;;12.36;54.27
16544;BME280;8384;47.996;7.786;2024-03-08T12:47:53;97880.75;;;11.70;55.84
16544;BME280;8384;47.996;7.786;2024-03-08T12:50:19;97886.09;;;11.57;57.29
16544;BME280;8384;47.996;7.786;2024-03-08T12:52:45;97887.19;;;12.53;56.85
16544;BME280;8384;47.996;7.786;2024-03-08T12:55:10;97870.03;;;13.32;53.49
16544;BME280;8384;47.996;7.786;2024-03-08T12:57:36;97836.03;;;13.14;53.08
16544;BME280;8384;47.996;7.786;2024-03-08T13:00:03;97860.41;;;13.35;54.04
16544;BME280;8384;47.996;7.786;2024-03-08T13:02:29;97846.88;;;13.39;51.58
16544;BME280;8384;47.996;7.786;2024-03-08T13:04:56;97846.81;;;12.39;54.22
16544;BME280;8384;47.996;7.786;2024-03-08T13:07:23;97824.94;;;11.91;55.99
16544;BME280;8384;47.996;7.786;2024-03-08T13:09:53;97839.97;;;11.93;56.79
16544;BME280;8384;47.996;7.786;2024-03-08T13:12:24;97827.66;;;12.15;55.38
16544;BME280;8384;47.996;7.786;2024-03-08T13:14:50;97821.81;;;12.22;55.07